createdAt,value
2019-05-09T00:00:37.171Z,12.63
2019-05-09T00:03:08.044Z,9.53
2019-05-09T00:05:39.055Z,10.73
2019-05-09T00:08:09.865Z,11.93
2019-05-09T00:10:41.949Z,10.70
2019-05-09T00:13:13.772Z,9.47
2019-05-09T00:15:44.717Z,9.87
2019-05-09T00:18:15.552Z,10.83
2019-05-09T00:20:55.554Z,9.13
2019-05-09T00:23:27.520Z,11.20
2019-05-09T00:25:58.333Z,9.83
2019-05-09T00:28:33.723Z,10.63
2019-05-09T00:31:08.059Z,12.63
2019-05-09T00:33:39.789Z,8.63
2019-05-09T00:36:10.559Z,10.57
2019-05-09T00:38:45.849Z,11.47
2019-05-09T00:41:16.592Z,9.93
2019-05-09T00:43:54.308Z,12.23
2019-05-09T00:46:38.744Z,12.33
2019-05-09T00:49:17.716Z,11.43
2019-05-09T00:51:48.506Z,10.40
2019-05-09T00:54:19.341Z,10.00
2019-05-09T00:56:50.400Z,10.40
2019-05-09T00:59:21.211Z,9.57
2019-05-09T01:01:54.136Z,9.57
2019-05-09T01:04:24.623Z,10.60
2019-05-09T01:06:55.387Z,9.60
2019-05-09T01:09:26.369Z,12.33
2019-05-09T01:11:57.181Z,13.27
2019-05-09T01:14:27.950Z,12.13
2019-05-09T01:16:58.773Z,11.03
2019-05-09T01:19:29.580Z,11.20
2019-05-09T01:22:00.373Z,10.43
2019-05-09T01:24:33.786Z,10.60
2019-05-09T01:27:04.389Z,11.67
2019-05-09T01:29:35.314Z,10.60
2019-05-09T01:32:14.422Z,16.13
2019-05-09T01:34:45.374Z,12.00
2019-05-09T01:37:16.163Z,10.33
2019-05-09T01:39:47.061Z,11.97
2019-05-09T01:42:17.999Z,14.43
2019-05-09T01:44:48.943Z,11.40
2019-05-09T01:47:19.783Z,10.53
2019-05-09T01:49:51.277Z,15.50
2019-05-09T01:52:23.206Z,12.50
2019-05-09T01:54:54.218Z,12.03
2019-05-09T01:57:25.158Z,11.50
2019-05-09T01:59:56.028Z,13.07
2019-05-09T02:02:26.850Z,13.10
2019-05-09T02:04:57.788Z,17.93
2019-05-09T02:07:28.745Z,11.30
2019-05-09T02:09:59.615Z,15.87
2019-05-09T02:12:30.563Z,12.30
2019-05-09T02:15:08.098Z,15.20
2019-05-09T02:17:58.814Z,18.47
2019-05-09T02:20:24.308Z,15.60
2019-05-09T02:22:55.012Z,14.27
2019-05-09T02:25:25.974Z,15.37
2019-05-09T02:27:56.745Z,19.90
2019-05-09T02:30:27.632Z,16.13
2019-05-09T02:32:58.503Z,14.67
2019-05-09T02:35:36.555Z,14.70
2019-05-09T02:38:01.843Z,13.80
2019-05-09T02:40:32.532Z,15.77
2019-05-09T02:43:03.315Z,15.70
2019-05-09T02:45:41.038Z,15.50
2019-05-09T02:48:11.832Z,16.23
2019-05-09T02:50:42.466Z,14.80
2019-05-09T02:53:13.124Z,13.53
2019-05-09T02:55:43.809Z,16.03
2019-05-09T02:58:20.271Z,15.77
2019-05-09T03:01:03.279Z,16.50
2019-05-09T03:03:39.260Z,16.47
2019-05-09T03:06:09.462Z,14.17
2019-05-09T03:08:40.235Z,13.20
2019-05-09T03:11:10.883Z,17.60
2019-05-09T03:13:41.537Z,16.03
2019-05-09T03:16:15.119Z,15.37
2019-05-09T03:18:45.751Z,15.13
2019-05-09T03:21:25.358Z,15.80
2019-05-09T03:23:58.918Z,15.67
2019-05-09T03:26:32.200Z,19.60
2019-05-09T03:29:11.944Z,14.37
2019-05-09T03:31:43.568Z,17.73
2019-05-09T03:34:14.265Z,16.80
2019-05-09T03:36:44.943Z,11.77
2019-05-09T03:39:15.580Z,11.67
2019-05-09T03:41:48.519Z,13.50
2019-05-09T03:44:18.474Z,18.07
2019-05-09T03:46:58.475Z,14.97
2019-05-09T03:49:29.068Z,15.23
2019-05-09T03:51:59.684Z,15.57
2019-05-09T03:54:30.289Z,21.33
2019-05-09T03:57:11.187Z,19.77
2019-05-09T03:59:41.590Z,20.77
2019-05-09T04:02:12.245Z,19.70
2019-05-09T04:04:42.838Z,22.97
2019-05-09T04:07:13.514Z,15.37
2019-05-09T04:09:44.180Z,17.90
2019-05-09T04:12:14.864Z,14.43
2019-05-09T04:14:47.513Z,16.80
2019-05-09T04:17:18.284Z,19.47
2019-05-09T04:19:48.968Z,13.10
2019-05-09T04:22:19.508Z,14.50
2019-05-09T04:24:50.648Z,12.30
2019-05-09T04:27:29.697Z,15.47
2019-05-09T04:29:58.898Z,16.07
2019-05-09T04:32:29.358Z,13.23
2019-05-09T04:35:00.044Z,15.27
2019-05-09T04:37:31.175Z,16.23
2019-05-09T04:40:03.424Z,16.17
2019-05-09T04:42:34.996Z,15.57
2019-05-09T04:45:22.476Z,15.00
2019-05-09T04:47:53.153Z,13.87
2019-05-09T04:50:25.075Z,13.40
2019-05-09T04:52:57.986Z,12.97
2019-05-09T04:55:30.642Z,13.83
2019-05-09T04:58:01.339Z,15.17
2019-05-09T05:00:50.846Z,15.43
2019-05-09T05:03:21.598Z,13.17
2019-05-09T05:05:52.468Z,15.27
2019-05-09T05:08:22.909Z,18.10
2019-05-09T05:10:53.308Z,14.10
2019-05-09T05:13:26.755Z,16.60
2019-05-09T05:15:57.825Z,16.23
2019-05-09T05:18:28.567Z,18.83
2019-05-09T05:20:59.318Z,19.53
2019-05-09T05:23:38.073Z,17.33
2019-05-09T05:26:10.320Z,18.00
2019-05-09T05:28:40.979Z,15.40
2019-05-09T05:31:11.900Z,18.07
2019-05-09T05:33:53.912Z,17.80
2019-05-09T05:36:24.016Z,19.87
2019-05-09T05:38:54.696Z,20.30
2019-05-09T05:41:25.327Z,18.97
2019-05-09T05:43:58.010Z,19.83
2019-05-09T05:46:50.548Z,17.27
2019-05-09T05:49:19.488Z,18.40
2019-05-09T05:51:50.145Z,18.27
2019-05-09T05:54:22.169Z,19.77
2019-05-09T05:56:52.989Z,19.10
2019-05-09T05:59:23.626Z,19.20
2019-05-09T06:01:58.664Z,22.63
2019-05-09T06:04:30.508Z,21.03
2019-05-09T06:07:01.218Z,23.00
2019-05-09T06:09:32.038Z,19.93
2019-05-09T06:12:02.917Z,19.83
2019-05-09T06:14:33.823Z,18.83
2019-05-09T06:17:04.708Z,20.33
2019-05-09T06:19:37.959Z,21.67
2019-05-09T06:22:08.498Z,27.63
2019-05-09T06:24:39.290Z,21.70
2019-05-09T06:27:10.731Z,23.70
2019-05-09T06:29:41.509Z,25.70
2019-05-09T06:32:12.263Z,24.10
2019-05-09T06:34:43.094Z,26.53
2019-05-09T06:37:13.973Z,31.93
2019-05-09T06:39:45.182Z,27.13
2019-05-09T06:42:18.095Z,28.27
2019-05-09T06:45:07.742Z,26.17
2019-05-09T06:47:42.073Z,24.30
2019-05-09T06:50:14.919Z,31.43
2019-05-09T06:52:47.847Z,28.10
2019-05-09T06:55:18.617Z,30.80
2019-05-09T06:57:49.429Z,27.43
2019-05-09T07:00:37.937Z,29.37
2019-05-09T07:03:14.377Z,29.90
2019-05-09T07:06:04.075Z,30.83
2019-05-09T07:08:47.525Z,32.50
2019-05-09T07:11:27.990Z,28.07
2019-05-09T07:13:59.282Z,28.80
2019-05-09T07:16:30.599Z,29.53
2019-05-09T07:19:01.871Z,26.37
2019-05-09T07:21:51.791Z,31.33
2019-05-09T07:24:23.596Z,31.00
2019-05-09T07:26:54.976Z,31.17
2019-05-09T07:29:28.463Z,28.37
2019-05-09T07:32:07.407Z,29.53
2019-05-09T07:34:42.551Z,28.47
2019-05-09T07:37:14.214Z,33.57
2019-05-09T07:39:45.538Z,28.90
2019-05-09T07:42:18.018Z,31.10
2019-05-09T07:44:52.471Z,31.90
2019-05-09T07:47:23.355Z,29.57
2019-05-09T07:49:54.642Z,34.97
2019-05-09T07:52:28.236Z,31.97
2019-05-09T07:54:59.222Z,32.07
2019-05-09T07:57:31.389Z,35.30
2019-05-09T08:00:02.918Z,35.37
2019-05-09T08:02:34.418Z,34.50
2019-05-09T08:05:08.382Z,35.47
2019-05-09T08:07:39.679Z,36.47
2019-05-09T08:10:11.822Z,36.23
2019-05-09T08:12:43.881Z,39.97
2019-05-09T08:15:17.482Z,37.90
2019-05-09T08:17:48.825Z,37.53
2019-05-09T08:20:23.493Z,39.50
2019-05-09T08:23:01.876Z,36.33
2019-05-09T08:25:30.962Z,38.13
2019-05-09T08:28:02.047Z,39.63
2019-05-09T08:30:36.259Z,30.77
2019-05-09T08:33:08.282Z,36.40
2019-05-09T08:35:38.489Z,33.93
2019-05-09T08:38:09.973Z,33.93
2019-05-09T08:40:40.831Z,36.23
2019-05-09T08:43:12.523Z,34.23
2019-05-09T08:45:43.735Z,41.27
2019-05-09T08:48:18.290Z,38.37
2019-05-09T08:50:53.024Z,37.27
2019-05-09T08:53:24.445Z,43.93
2019-05-09T08:55:57.866Z,43.53
2019-05-09T08:58:29.349Z,40.90
2019-05-09T09:01:04.125Z,38.83
2019-05-09T09:03:34.084Z,46.60
2019-05-09T09:06:08.493Z,43.57
2019-05-09T09:08:40.079Z,44.97
2019-05-09T09:11:11.521Z,40.70
2019-05-09T09:13:42.817Z,39.83
2019-05-09T09:16:19.961Z,41.10
2019-05-09T09:18:48.213Z,35.43
2019-05-09T09:21:20.562Z,41.00
2019-05-09T09:23:52.758Z,39.80
2019-05-09T09:26:24.173Z,41.50
2019-05-09T09:28:57.581Z,38.30
2019-05-09T09:31:32.414Z,40.37
2019-05-09T09:34:04.274Z,43.17
2019-05-09T09:36:38.863Z,40.57
2019-05-09T09:39:09.714Z,38.93
2019-05-09T09:41:41.333Z,41.00
2019-05-09T09:44:12.054Z,36.77
2019-05-09T09:46:43.888Z,37.40
2019-05-09T09:49:17.967Z,34.37
2019-05-09T09:51:49.357Z,42.43
2019-05-09T09:54:21.198Z,39.37
2019-05-09T09:56:54.675Z,36.13
2019-05-09T09:59:48.123Z,41.73
2019-05-09T10:02:21.555Z,42.53
2019-05-09T10:04:53.108Z,42.43
2019-05-09T10:07:24.867Z,37.20
2019-05-09T10:09:58.377Z,43.33
2019-05-09T10:12:30.547Z,42.00
2019-05-09T10:15:18.881Z,40.50
2019-05-09T10:17:58.260Z,38.83
2019-05-09T10:20:38.492Z,37.97
2019-05-09T10:23:17.859Z,34.17
2019-05-09T10:25:44.206Z,33.70
2019-05-09T10:28:21.464Z,36.67
2019-05-09T10:30:50.210Z,36.00
2019-05-09T10:33:22.255Z,32.33
2019-05-09T10:35:54.344Z,36.47
2019-05-09T10:38:27.905Z,30.47
2019-05-09T10:41:00.814Z,35.20
2019-05-09T10:43:51.228Z,33.67
2019-05-09T10:46:49.486Z,35.20
2019-05-09T10:49:11.690Z,38.23
2019-05-09T10:51:43.382Z,34.17
2019-05-09T10:54:15.309Z,39.03
2019-05-09T10:56:48.679Z,37.33
2019-05-09T10:59:21.007Z,37.70
2019-05-09T11:01:51.785Z,40.77
2019-05-09T11:04:23.854Z,37.73
2019-05-09T11:06:55.306Z,38.03
2019-05-09T11:09:29.094Z,33.57
2019-05-09T11:12:01.247Z,32.77
2019-05-09T11:14:37.009Z,32.33
2019-05-09T11:17:12.478Z,29.97
2019-05-09T11:19:40.052Z,29.37
2019-05-09T11:22:12.957Z,28.23
2019-05-09T11:24:48.095Z,27.10
2019-05-09T11:27:19.012Z,27.50
2019-05-09T11:29:50.082Z,28.70
2019-05-09T11:32:20.717Z,22.80
2019-05-09T11:34:52.802Z,20.00
2019-05-09T11:37:24.026Z,22.53
2019-05-09T11:39:55.091Z,20.33
2019-05-09T11:42:28.350Z,20.90
2019-05-09T11:44:59.071Z,19.77
2019-05-09T11:47:49.709Z,23.00
2019-05-09T11:50:23.209Z,20.00
2019-05-09T11:52:54.590Z,18.73
2019-05-09T11:55:35.022Z,21.67
2019-05-09T11:57:59.021Z,17.80
2019-05-09T12:00:30.480Z,18.80
2019-05-09T12:03:01.216Z,16.43
2019-05-09T12:05:32.040Z,22.43
2019-05-09T12:08:02.720Z,14.57
2019-05-09T12:10:33.793Z,14.00
2019-05-09T12:13:04.856Z,19.43
2019-05-09T12:15:35.477Z,13.63
2019-05-09T12:18:11.201Z,16.03
2019-05-09T12:20:39.272Z,20.60
2019-05-09T12:23:10.170Z,16.37
2019-05-09T12:25:40.881Z,15.10
2019-05-09T12:28:11.611Z,13.57
2019-05-09T12:30:42.318Z,13.73
2019-05-09T12:33:13.088Z,16.80
2019-05-09T12:35:44.005Z,15.63
2019-05-09T12:38:14.597Z,14.57
2019-05-09T12:40:45.339Z,13.37
2019-05-09T12:43:18.374Z,16.57
2019-05-09T12:45:52.145Z,15.87
2019-05-09T12:48:22.816Z,13.33
2019-05-09T12:50:53.539Z,15.70
2019-05-09T12:53:24.286Z,15.43
2019-05-09T12:56:00.515Z,15.67
2019-05-09T12:58:32.548Z,16.00
2019-05-09T13:01:03.221Z,16.00
2019-05-09T13:03:35.119Z,14.77
2019-05-09T13:06:07.984Z,14.90
2019-05-09T13:08:39.353Z,14.47
2019-05-09T13:11:11.642Z,14.93
2019-05-09T13:13:48.369Z,15.63
2019-05-09T13:16:47.361Z,14.20
2019-05-09T13:19:10.320Z,14.13
2019-05-09T13:21:45.071Z,12.07
2019-05-09T13:24:23.691Z,12.77
2019-05-09T13:26:55.071Z,12.53
2019-05-09T13:29:29.492Z,13.97
2019-05-09T13:31:59.296Z,13.20
2019-05-09T13:34:31.857Z,12.10
2019-05-09T13:37:05.512Z,10.00
2019-05-09T13:39:39.673Z,10.53
2019-05-09T13:42:13.453Z,10.23
2019-05-09T13:44:47.587Z,10.90
2019-05-09T13:47:18.503Z,10.93
2019-05-09T13:49:55.805Z,13.10
2019-05-09T13:52:29.819Z,11.70
2019-05-09T13:55:03.263Z,12.40
2019-05-09T13:57:41.763Z,11.60
2019-05-09T14:00:14.059Z,9.87
2019-05-09T14:02:45.448Z,10.47
2019-05-09T14:05:18.940Z,9.57
2019-05-09T14:07:55.223Z,13.20
2019-05-09T14:10:29.012Z,10.23
2019-05-09T14:13:07.018Z,9.80
2019-05-09T14:15:34.014Z,9.90
2019-05-09T14:18:05.159Z,9.43
2019-05-09T14:20:37.741Z,10.60
2019-05-09T14:23:12.816Z,10.93
2019-05-09T14:25:48.424Z,11.80
2019-05-09T14:28:20.340Z,13.07
2019-05-09T14:30:51.231Z,15.37
2019-05-09T14:33:26.803Z,14.03
2019-05-09T14:35:59.667Z,11.63
2019-05-09T14:38:32.824Z,13.20
2019-05-09T14:41:19.101Z,12.93
2019-05-09T14:43:49.590Z,11.50
2019-05-09T14:46:20.669Z,11.47
2019-05-09T14:48:53.904Z,9.70
2019-05-09T14:51:28.245Z,11.67
2019-05-09T14:54:00.900Z,12.93
2019-05-09T14:56:31.641Z,13.73
2019-05-09T14:59:02.440Z,10.80
2019-05-09T15:01:34.361Z,10.70
2019-05-09T15:04:09.057Z,11.90
2019-05-09T15:06:40.580Z,12.70
2019-05-09T15:09:20.871Z,13.03
2019-05-09T15:11:55.110Z,14.90
2019-05-09T15:14:28.964Z,14.23
2019-05-09T15:17:00.023Z,15.17
2019-05-09T15:19:37.887Z,15.87
2019-05-09T15:22:11.010Z,12.77
2019-05-09T15:24:44.101Z,13.37
2019-05-09T15:27:19.634Z,13.40
2019-05-09T15:29:50.505Z,14.07
2019-05-09T15:32:21.670Z,12.97
2019-05-09T15:34:53.411Z,12.30
2019-05-09T15:37:28.813Z,13.97
2019-05-09T15:40:02.677Z,13.33
2019-05-09T15:42:33.574Z,18.37
2019-05-09T15:45:07.816Z,16.33
2019-05-09T15:47:39.709Z,17.67
2019-05-09T15:50:22.765Z,20.80
2019-05-09T15:52:54.536Z,17.67
2019-05-09T15:55:28.289Z,15.70
2019-05-09T15:58:04.145Z,15.23
2019-05-09T16:00:38.830Z,17.53
2019-05-09T16:03:23.490Z,13.83
2019-05-09T16:05:58.475Z,14.40
2019-05-09T16:08:28.998Z,14.70
2019-05-09T16:11:01.940Z,14.53
2019-05-09T16:13:37.644Z,15.23
2019-05-09T16:16:11.959Z,18.73
2019-05-09T16:18:48.653Z,16.33
2019-05-09T16:21:31.435Z,17.50
2019-05-09T16:24:02.269Z,20.03
2019-05-09T16:26:33.905Z,22.30
2019-05-09T16:29:04.675Z,21.77
2019-05-09T16:31:39.288Z,21.23
2019-05-09T16:34:14.192Z,20.40
2019-05-09T16:36:47.988Z,23.77
2019-05-09T16:39:21.674Z,21.57
2019-05-09T16:41:59.205Z,18.23
2019-05-09T16:44:31.046Z,18.57
2019-05-09T16:47:01.896Z,24.73
2019-05-09T16:49:32.660Z,18.43
2019-05-09T16:52:03.545Z,19.07
2019-05-09T16:54:43.214Z,21.93
2019-05-09T16:57:14.022Z,17.50
2019-05-09T16:59:47.845Z,20.07
2019-05-09T17:02:25.261Z,24.33
2019-05-09T17:05:03.734Z,20.53
2019-05-09T17:07:38.318Z,23.77
2019-05-09T17:10:09.968Z,25.43
2019-05-09T17:12:42.849Z,26.13
2019-05-09T17:15:19.271Z,26.00
2019-05-09T17:17:51.754Z,26.03
2019-05-09T17:20:32.569Z,30.03
2019-05-09T17:23:15.285Z,28.27
2019-05-09T17:25:53.001Z,28.00
2019-05-09T17:28:28.418Z,28.90
2019-05-09T17:31:02.189Z,26.17
2019-05-09T17:33:37.941Z,24.90
2019-05-09T17:36:09.862Z,24.97
2019-05-09T17:38:44.014Z,27.10
2019-05-09T17:41:17.855Z,27.63
2019-05-09T17:43:52.064Z,25.23
2019-05-09T17:46:27.380Z,27.70
2019-05-09T17:49:01.938Z,26.17
2019-05-09T17:51:42.277Z,27.43
2019-05-09T17:54:15.509Z,27.93
2019-05-09T17:56:48.261Z,27.70
2019-05-09T17:59:29.296Z,25.70
2019-05-09T18:02:01.733Z,31.60
2019-05-09T18:04:39.129Z,39.40
2019-05-09T18:07:18.276Z,30.23
2019-05-09T18:09:53.743Z,33.67
2019-05-09T18:12:27.695Z,27.30
2019-05-09T18:15:07.847Z,26.53
2019-05-09T18:17:47.908Z,26.43
2019-05-09T18:20:30.105Z,27.13
2019-05-09T18:23:03.441Z,26.37
2019-05-09T18:25:41.671Z,27.90
2019-05-09T18:28:20.762Z,25.10
2019-05-09T18:30:55.660Z,25.77
2019-05-09T18:33:37.988Z,23.93
2019-05-09T18:36:09.099Z,25.17
2019-05-09T18:38:44.400Z,29.17
2019-05-09T18:41:28.416Z,28.57
2019-05-09T18:44:00.596Z,29.17
2019-05-09T18:46:39.333Z,30.37
2019-05-09T18:49:18.740Z,31.83
2019-05-09T18:52:03.902Z,33.50
2019-05-09T18:54:32.425Z,33.43
2019-05-09T18:57:09.012Z,34.67
2019-05-09T18:59:43.772Z,31.83
2019-05-09T19:02:17.151Z,30.63
2019-05-09T19:04:50.453Z,29.07
2019-05-09T19:07:22.886Z,28.73
2019-05-09T19:09:55.573Z,31.67
2019-05-09T19:12:30.321Z,36.10
2019-05-09T19:15:05.430Z,37.53
2019-05-09T19:17:53.588Z,41.30
2019-05-09T19:20:38.889Z,41.97
2019-05-09T19:23:11.496Z,45.50
2019-05-09T19:25:47.273Z,46.07
2019-05-09T19:28:24.143Z,45.83
2019-05-09T19:31:04.844Z,49.17
2019-05-09T19:33:41.700Z,52.13
2019-05-09T19:36:15.387Z,55.03
2019-05-09T19:38:48.658Z,54.23
2019-05-09T19:41:23.100Z,56.80
2019-05-09T19:43:58.404Z,59.63
2019-05-09T19:46:32.129Z,63.83
2019-05-09T19:49:03.919Z,63.57
2019-05-09T19:51:39.778Z,68.43
2019-05-09T19:54:16.037Z,75.47
2019-05-09T19:56:48.867Z,78.63
2019-05-09T19:59:22.507Z,76.80
2019-05-09T20:01:59.614Z,83.40
2019-05-09T20:04:33.578Z,86.37
2019-05-09T20:07:11.419Z,92.97
2019-05-09T20:09:53.382Z,97.87
2019-05-09T20:12:38.358Z,84.83
2019-05-09T20:15:13.244Z,110.87
2019-05-09T20:17:49.675Z,83.33
2019-05-09T20:20:20.846Z,103.37
2019-05-09T20:22:55.051Z,117.73
2019-05-09T20:25:50.076Z,106.50
2019-05-09T20:28:23.365Z,100.47
2019-05-09T20:31:00.659Z,95.00
2019-05-09T20:33:33.423Z,96.50
2019-05-09T20:36:04.624Z,105.47
2019-05-09T20:38:38.928Z,118.13
2019-05-09T20:41:12.847Z,124.30
2019-05-09T20:43:46.114Z,134.23
2019-05-09T20:46:24.394Z,119.07
2019-05-09T20:48:59.124Z,117.27
2019-05-09T20:51:40.490Z,119.77
2019-05-09T20:54:20.411Z,118.10
2019-05-09T20:56:45.974Z,123.50
2019-05-09T20:59:18.349Z,109.93
2019-05-09T21:01:51.803Z,128.33
2019-05-09T21:04:24.513Z,140.37
2019-05-09T21:06:55.688Z,153.87
2019-05-09T21:09:27.682Z,153.60
2019-05-09T21:12:00.012Z,173.97
2019-05-09T21:14:31.593Z,160.90
2019-05-09T21:17:03.573Z,181.07
2019-05-09T21:19:35.832Z,154.53
2019-05-09T21:22:07.795Z,141.67
2019-05-09T21:24:39.604Z,137.97
2019-05-09T21:27:11.511Z,130.40
2019-05-09T21:29:43.884Z,122.87
2019-05-09T21:32:15.798Z,116.77
2019-05-09T21:34:46.643Z,113.80
2019-05-09T21:37:18.581Z,126.13
2019-05-09T21:39:49.465Z,129.13
2019-05-09T21:42:20.468Z,129.30
2019-05-09T21:44:51.371Z,121.87
2019-05-09T21:47:22.281Z,114.80
2019-05-09T21:49:53.029Z,108.57
2019-05-09T21:52:23.900Z,116.73
2019-05-09T21:54:55.158Z,112.63
2019-05-09T21:57:26.029Z,94.50
2019-05-09T21:59:57.003Z,101.60
2019-05-09T22:02:27.941Z,137.43
2019-05-09T22:04:58.876Z,146.27
2019-05-09T22:07:29.897Z,162.43
2019-05-09T22:10:00.732Z,157.47
2019-05-09T22:12:31.446Z,169.40
2019-05-09T22:15:04.064Z,170.10
2019-05-09T22:17:38.523Z,172.10
2019-05-09T22:20:12.228Z,144.97
2019-05-09T22:22:42.940Z,152.03
2019-05-09T22:25:14.108Z,156.47
2019-05-09T22:27:45.070Z,159.67
2019-05-09T22:30:17.163Z,169.63
2019-05-09T22:32:48.028Z,152.90
2019-05-09T22:35:24.948Z,136.93
2019-05-09T22:37:55.849Z,128.63
2019-05-09T22:40:26.752Z,122.03
2019-05-09T22:42:57.678Z,137.73
2019-05-09T22:45:28.450Z,136.40
2019-05-09T22:47:59.268Z,138.30
2019-05-09T22:50:30.073Z,141.87
2019-05-09T22:53:07.448Z,154.33
2019-05-09T22:55:44.522Z,144.77
2019-05-09T22:58:21.307Z,167.03
2019-05-09T23:00:59.658Z,175.20
2019-05-09T23:03:36.286Z,180.13
2019-05-09T23:06:16.336Z,199.40
2019-05-09T23:08:54.236Z,206.23
2019-05-09T23:11:36.537Z,196.73
2019-05-09T23:14:18.647Z,196.43
2019-05-09T23:16:59.508Z,190.63
2019-05-09T23:19:38.653Z,153.83
2019-05-09T23:22:14.592Z,148.07
2019-05-09T23:24:54.033Z,155.50
2019-05-09T23:27:29.777Z,159.80
2019-05-09T23:30:05.318Z,148.73
2019-05-09T23:32:45.477Z,140.57
2019-05-09T23:35:21.656Z,123.80
2019-05-09T23:37:58.097Z,123.20
2019-05-09T23:40:32.822Z,125.97
2019-05-09T23:43:09.079Z,116.93
2019-05-09T23:45:45.036Z,100.80
2019-05-09T23:48:19.769Z,90.03
2019-05-09T23:50:56.438Z,91.87
2019-05-09T23:53:39.147Z,91.23
2019-05-09T23:56:33.331Z,90.50
2019-05-09T23:59:28.227Z,90.80
